createdAt,value
2019-01-11T00:00:46.986Z,1.50
2019-01-11T00:03:15.585Z,1.50
2019-01-11T00:05:45.477Z,1.50
2019-01-11T00:08:13.928Z,1.50
2019-01-11T00:10:42.236Z,1.50
2019-01-11T00:13:12.513Z,1.50
2019-01-11T00:15:40.598Z,1.50
2019-01-11T00:18:08.876Z,1.50
2019-01-11T00:20:37.175Z,1.50
2019-01-11T00:23:05.412Z,1.50
2019-01-11T00:25:33.787Z,1.50
2019-01-11T00:28:02.103Z,1.50
2019-01-11T00:30:30.379Z,1.60
2019-01-11T00:32:58.648Z,1.70
2019-01-11T00:35:26.961Z,1.60
2019-01-11T00:37:55.258Z,1.60
2019-01-11T00:40:23.640Z,1.60
2019-01-11T00:42:51.919Z,1.60
2019-01-11T00:45:20.202Z,1.60
2019-01-11T00:47:48.509Z,1.60
2019-01-11T00:50:16.838Z,1.60
2019-01-11T00:52:45.118Z,1.60
2019-01-11T00:55:13.388Z,1.70
2019-01-11T00:57:41.929Z,1.70
2019-01-11T01:00:13.440Z,1.60
2019-01-11T01:02:41.840Z,1.70
2019-01-11T01:05:10.096Z,1.70
2019-01-11T01:07:38.416Z,1.70
2019-01-11T01:10:07.156Z,1.60
2019-01-11T01:12:35.418Z,1.70
2019-01-11T01:15:05.830Z,1.70
2019-01-11T01:17:34.154Z,1.70
2019-01-11T01:20:03.619Z,1.70
2019-01-11T01:22:31.884Z,1.80
2019-01-11T01:25:01.707Z,1.80
2019-01-11T01:27:29.943Z,1.80
2019-01-11T01:29:58.292Z,1.80
2019-01-11T01:32:26.536Z,1.70
2019-01-11T01:34:54.912Z,1.70
2019-01-11T01:37:28.688Z,1.70
2019-01-11T01:39:53.552Z,1.60
2019-01-11T01:42:49.534Z,1.60
2019-01-11T01:45:18.287Z,1.70
2019-01-11T01:47:58.628Z,1.70
2019-01-11T01:50:18.177Z,1.70
2019-01-11T01:52:46.501Z,1.70
2019-01-11T01:55:15.128Z,1.60
2019-01-11T01:57:43.456Z,1.70
2019-01-11T02:00:14.961Z,1.70
2019-01-11T02:02:43.225Z,1.80
2019-01-11T02:05:11.544Z,1.70
2019-01-11T02:07:39.845Z,1.70
2019-01-11T02:10:10.767Z,1.70
2019-01-11T02:12:39.013Z,1.70
2019-01-11T02:15:08.948Z,1.70
2019-01-11T02:17:37.289Z,1.70
2019-01-11T02:20:09.149Z,1.80
2019-01-11T02:22:37.419Z,1.80
2019-01-11T02:25:06.433Z,1.80
2019-01-11T02:27:34.768Z,1.80
2019-01-11T02:30:03.043Z,1.80
2019-01-11T02:32:31.293Z,1.80
2019-01-11T02:34:59.580Z,1.70
2019-01-11T02:37:27.888Z,1.70
2019-01-11T02:39:58.633Z,1.70
2019-01-11T02:42:26.285Z,1.80
2019-01-11T02:44:54.700Z,1.70
2019-01-11T02:47:23.891Z,1.80
2019-01-11T02:49:52.335Z,1.80
2019-01-11T02:52:20.821Z,1.80
2019-01-11T02:54:49.169Z,1.80
2019-01-11T02:57:17.410Z,1.80
2019-01-11T02:59:45.744Z,1.80
2019-01-11T03:02:14.068Z,1.80
2019-01-11T03:04:42.345Z,1.80
2019-01-11T03:07:10.595Z,1.80
2019-01-11T03:09:39.125Z,1.80
2019-01-11T03:12:07.403Z,1.90
2019-01-11T03:14:35.705Z,1.80
2019-01-11T03:17:03.967Z,1.90
2019-01-11T03:19:32.215Z,1.90
2019-01-11T03:22:00.493Z,1.80
2019-01-11T03:24:28.872Z,1.90
2019-01-11T03:26:57.278Z,1.90
2019-01-11T03:29:25.542Z,1.90
2019-01-11T03:31:53.830Z,1.90
2019-01-11T03:34:22.156Z,1.90
2019-01-11T03:36:50.427Z,1.90
2019-01-11T03:39:18.684Z,1.90
2019-01-11T03:41:48.589Z,1.90
2019-01-11T03:44:16.856Z,1.90
2019-01-11T03:46:45.092Z,2.00
2019-01-11T03:49:13.426Z,2.00
2019-01-11T03:51:41.681Z,1.90
2019-01-11T03:54:09.933Z,1.90
2019-01-11T03:56:38.206Z,2.00
2019-01-11T03:59:06.559Z,2.10
2019-01-11T04:01:34.825Z,2.00
2019-01-11T04:04:05.510Z,2.00
2019-01-11T04:06:33.793Z,2.00
2019-01-11T04:09:14.681Z,2.00
2019-01-11T04:11:34.297Z,2.00
2019-01-11T04:14:02.570Z,2.00
2019-01-11T04:16:30.816Z,2.00
2019-01-11T04:19:00.871Z,2.00
2019-01-11T04:21:29.115Z,2.00
2019-01-11T04:23:58.144Z,2.10
2019-01-11T04:26:26.421Z,2.10
2019-01-11T04:28:54.681Z,2.10
2019-01-11T04:31:23.009Z,2.10
2019-01-11T04:33:51.310Z,2.10
2019-01-11T04:36:19.565Z,2.10
2019-01-11T04:38:47.837Z,2.20
2019-01-11T04:41:17.740Z,2.20
2019-01-11T04:43:46.231Z,2.20
2019-01-11T04:46:14.610Z,2.20
2019-01-11T04:48:42.871Z,2.20
2019-01-11T04:51:11.135Z,2.20
2019-01-11T04:53:39.456Z,2.20
2019-01-11T04:56:07.780Z,2.20
2019-01-11T04:58:36.188Z,2.20
2019-01-11T05:01:09.369Z,2.20
2019-01-11T05:03:37.639Z,2.30
2019-01-11T05:06:06.194Z,2.20
2019-01-11T05:08:35.395Z,2.20
2019-01-11T05:11:03.683Z,2.20
2019-01-11T05:13:38.080Z,2.20
2019-01-11T05:16:06.400Z,2.30
2019-01-11T05:18:38.595Z,2.20
2019-01-11T05:21:06.965Z,2.20
2019-01-11T05:23:35.274Z,2.20
2019-01-11T05:26:03.531Z,2.20
2019-01-11T05:28:31.789Z,2.20
2019-01-11T05:31:00.779Z,2.20
2019-01-11T05:33:29.106Z,2.20
2019-01-11T05:35:57.434Z,2.20
2019-01-11T05:38:25.747Z,2.20
2019-01-11T05:40:54.070Z,2.20
2019-01-11T05:43:24.458Z,2.20
2019-01-11T05:45:52.773Z,2.30
2019-01-11T05:48:21.130Z,2.30
2019-01-11T05:50:49.388Z,2.30
2019-01-11T05:53:17.675Z,2.30
2019-01-11T05:55:47.088Z,2.30
2019-01-11T05:58:22.828Z,2.30
2019-01-11T06:00:51.122Z,2.30
2019-01-11T06:03:19.638Z,2.30
2019-01-11T06:05:47.966Z,2.30
2019-01-11T06:08:20.227Z,2.40
2019-01-11T06:10:48.476Z,2.40
2019-01-11T06:13:16.742Z,2.30
2019-01-11T06:15:45.048Z,2.40
2019-01-11T06:18:14.057Z,2.40
2019-01-11T06:20:42.472Z,2.40
2019-01-11T06:23:10.719Z,2.40
2019-01-11T06:25:39.085Z,2.40
2019-01-11T06:28:07.362Z,2.40
2019-01-11T06:30:35.626Z,2.40
2019-01-11T06:33:03.963Z,2.40
2019-01-11T06:35:32.584Z,2.40
2019-01-11T06:38:00.879Z,2.40
2019-01-11T06:40:29.137Z,2.50
2019-01-11T06:43:03.371Z,2.40
2019-01-11T06:45:27.454Z,2.50
2019-01-11T06:47:55.737Z,2.50
2019-01-11T06:50:24.058Z,2.50
2019-01-11T06:52:52.320Z,2.60
2019-01-11T06:55:20.597Z,2.50
2019-01-11T06:57:48.865Z,2.50
2019-01-11T07:00:19.869Z,2.60
2019-01-11T07:02:48.227Z,2.60
2019-01-11T07:05:16.477Z,2.60
2019-01-11T07:07:44.754Z,2.60
2019-01-11T07:10:18.968Z,2.60
2019-01-11T07:12:47.243Z,2.60
2019-01-11T07:15:16.074Z,2.60
2019-01-11T07:17:44.403Z,2.70
2019-01-11T07:20:14.887Z,2.70
2019-01-11T07:22:43.198Z,2.70
2019-01-11T07:25:13.382Z,2.70
2019-01-11T07:27:49.559Z,2.70
2019-01-11T07:30:17.870Z,2.70
2019-01-11T07:32:46.237Z,2.70
2019-01-11T07:35:14.526Z,2.70
2019-01-11T07:37:42.780Z,2.70
2019-01-11T07:40:12.395Z,2.70
2019-01-11T07:42:40.639Z,2.70
2019-01-11T07:45:11.229Z,2.80
2019-01-11T07:47:39.542Z,2.80
2019-01-11T07:50:09.219Z,2.80
2019-01-11T07:52:37.702Z,2.80
2019-01-11T07:55:08.004Z,2.90
2019-01-11T07:57:36.309Z,2.90
2019-01-11T08:00:10.710Z,2.90
2019-01-11T08:02:39.157Z,3.00
2019-01-11T08:05:07.574Z,2.90
2019-01-11T08:07:39.192Z,3.00
2019-01-11T08:10:10.088Z,3.00
2019-01-11T08:12:38.629Z,3.00
2019-01-11T08:15:09.879Z,3.00
2019-01-11T08:17:38.224Z,3.00
2019-01-11T08:20:08.312Z,3.00
2019-01-11T08:22:38.333Z,3.10
2019-01-11T08:25:06.913Z,3.10
2019-01-11T08:27:35.210Z,3.20
2019-01-11T08:30:05.250Z,3.10
2019-01-11T08:32:33.700Z,3.20
2019-01-11T08:35:03.618Z,3.20
2019-01-11T08:37:31.913Z,3.20
2019-01-11T08:40:00.232Z,3.20
2019-01-11T08:42:28.497Z,3.20
2019-01-11T08:44:58.636Z,3.20
2019-01-11T08:47:27.026Z,3.30
2019-01-11T08:49:55.366Z,3.20
2019-01-11T08:52:23.935Z,3.20
2019-01-11T08:54:52.255Z,3.20
2019-01-11T08:57:20.572Z,3.30
2019-01-11T08:59:48.823Z,3.30
2019-01-11T09:02:17.126Z,3.30
2019-01-11T09:04:45.375Z,3.40
2019-01-11T09:07:13.639Z,3.40
2019-01-11T09:09:42.972Z,3.40
2019-01-11T09:12:11.338Z,3.40
2019-01-11T09:14:50.358Z,3.50
2019-01-11T09:17:18.722Z,3.50
2019-01-11T09:19:47.168Z,3.50
2019-01-11T09:22:15.433Z,3.50
2019-01-11T09:24:43.677Z,3.50
2019-01-11T09:27:12.096Z,3.60
2019-01-11T09:29:40.376Z,3.60
2019-01-11T09:32:08.666Z,3.70
2019-01-11T09:34:37.001Z,3.60
2019-01-11T09:37:05.392Z,3.60
2019-01-11T09:39:33.655Z,3.70
2019-01-11T09:42:01.907Z,3.70
2019-01-11T09:44:32.701Z,3.70
2019-01-11T09:47:00.970Z,3.80
2019-01-11T09:49:32.431Z,3.80
2019-01-11T09:52:00.824Z,3.80
2019-01-11T09:54:29.147Z,3.90
2019-01-11T09:56:58.328Z,4.00
2019-01-11T09:59:26.667Z,4.00
2019-01-11T10:01:56.618Z,4.10
2019-01-11T10:04:26.620Z,4.20
2019-01-11T10:06:56.621Z,4.20
2019-01-11T10:09:24.902Z,4.20
2019-01-11T10:11:53.155Z,4.20
2019-01-11T10:14:26.133Z,4.20
2019-01-11T10:16:54.020Z,4.20
2019-01-11T10:19:22.271Z,4.20
2019-01-11T10:21:50.906Z,4.30
2019-01-11T10:24:19.505Z,4.30
2019-01-11T10:26:47.849Z,4.50
2019-01-11T10:29:17.037Z,4.50
2019-01-11T10:31:45.337Z,4.50
2019-01-11T10:34:13.761Z,4.50
2019-01-11T10:36:42.109Z,4.50
2019-01-11T10:39:10.383Z,4.50
2019-01-11T10:41:38.655Z,4.50
2019-01-11T10:44:09.619Z,4.60
2019-01-11T10:46:38.042Z,4.50
2019-01-11T10:49:09.069Z,4.60
2019-01-11T10:51:37.347Z,4.70
2019-01-11T10:54:07.253Z,4.70
2019-01-11T10:56:38.224Z,4.70
2019-01-11T10:59:06.544Z,4.70
2019-01-11T11:01:35.041Z,4.80
2019-01-11T11:04:03.420Z,4.80
2019-01-11T11:06:31.701Z,4.80
2019-01-11T11:08:59.983Z,4.90
2019-01-11T11:11:28.246Z,4.90
2019-01-11T11:13:56.667Z,4.90
2019-01-11T11:16:24.984Z,5.00
2019-01-11T11:18:53.265Z,5.00
2019-01-11T11:21:21.607Z,5.10
2019-01-11T11:23:53.931Z,5.10
2019-01-11T11:26:20.304Z,5.10
2019-01-11T11:28:49.589Z,5.10
2019-01-11T11:31:17.846Z,5.20
2019-01-11T11:33:46.180Z,5.20
2019-01-11T11:36:14.506Z,5.30
2019-01-11T11:38:44.430Z,5.30
2019-01-11T11:41:12.832Z,5.30
2019-01-11T11:43:41.101Z,5.30
2019-01-11T11:46:09.402Z,5.30
2019-01-11T11:48:37.753Z,5.40
2019-01-11T11:51:10.246Z,5.50
2019-01-11T11:53:36.005Z,5.50
2019-01-11T11:56:04.457Z,5.50
2019-01-11T11:58:32.718Z,5.50
2019-01-11T12:01:00.995Z,5.60
2019-01-11T12:03:29.378Z,5.60
2019-01-11T12:05:57.788Z,5.60
2019-01-11T12:08:26.120Z,5.60
2019-01-11T12:10:54.506Z,5.60
2019-01-11T12:13:22.924Z,5.70
2019-01-11T12:15:54.002Z,5.70
2019-01-11T12:18:22.346Z,5.70
2019-01-11T12:20:50.637Z,5.70
2019-01-11T12:23:18.899Z,5.80
2019-01-11T12:25:47.199Z,5.90
2019-01-11T12:28:15.466Z,5.90
2019-01-11T12:30:43.769Z,5.90
2019-01-11T12:33:12.121Z,5.80
2019-01-11T12:35:40.436Z,5.90
2019-01-11T12:38:13.665Z,6.00
2019-01-11T12:40:38.883Z,6.00
2019-01-11T12:43:07.246Z,6.10
2019-01-11T12:45:35.595Z,6.10
2019-01-11T12:48:06.227Z,6.20
2019-01-11T12:50:34.541Z,6.20
2019-01-11T12:53:11.209Z,6.20
2019-01-11T12:55:36.957Z,6.30
2019-01-11T12:58:06.306Z,6.40
2019-01-11T13:00:34.637Z,6.40
2019-01-11T13:03:02.877Z,6.40
2019-01-11T13:05:36.480Z,6.50
2019-01-11T13:08:04.716Z,6.40
2019-01-11T13:10:33.202Z,6.50
2019-01-11T13:13:01.589Z,6.50
2019-01-11T13:15:29.850Z,6.50
2019-01-11T13:17:58.194Z,6.50
2019-01-11T13:20:26.542Z,6.50
2019-01-11T13:22:54.836Z,6.60
2019-01-11T13:25:23.104Z,6.60
2019-01-11T13:27:51.358Z,6.70
2019-01-11T13:30:19.641Z,6.70
2019-01-11T13:32:47.900Z,6.70
2019-01-11T13:37:44.184Z,6.70
2019-01-11T13:40:15.338Z,6.80
2019-01-11T13:42:45.773Z,6.80
2019-01-11T13:45:14.261Z,6.90
2019-01-11T13:47:42.702Z,6.90
2019-01-11T13:50:20.421Z,7.00
2019-01-11T13:52:48.948Z,7.00
2019-01-11T13:55:17.292Z,7.00
2019-01-11T13:57:45.591Z,7.10
2019-01-11T14:00:14.721Z,7.00
2019-01-11T14:02:44.875Z,7.00
2019-01-11T14:05:15.679Z,7.00
2019-01-11T14:07:43.937Z,7.10
2019-01-11T14:10:15.432Z,7.10
2019-01-11T14:12:43.703Z,7.10
2019-01-11T14:15:12.252Z,7.10
2019-01-11T14:17:43.654Z,7.10
2019-01-11T14:20:12.433Z,7.10
2019-01-11T14:22:40.771Z,7.10
2019-01-11T14:25:10.401Z,7.00
2019-01-11T14:27:38.831Z,7.00
2019-01-11T14:30:18.585Z,7.00
2019-01-11T14:32:47.001Z,7.00
2019-01-11T14:35:15.420Z,7.00
2019-01-11T14:37:44.036Z,6.90
2019-01-11T14:40:31.747Z,6.90
2019-01-11T14:43:00.193Z,6.90
2019-01-11T14:45:31.962Z,7.00
2019-01-11T14:48:00.236Z,7.00
2019-01-11T14:50:28.645Z,7.00
2019-01-11T14:52:57.030Z,7.10
2019-01-11T14:55:26.904Z,7.40
2019-01-11T15:00:23.274Z,7.40
2019-01-11T15:02:51.608Z,7.20
2019-01-11T15:05:20.368Z,7.20
2019-01-11T15:07:48.668Z,7.10
2019-01-11T15:10:17.037Z,7.10
2019-01-11T15:12:46.372Z,7.10
2019-01-11T15:15:14.755Z,7.00
2019-01-11T15:17:43.144Z,7.10
2019-01-11T15:20:15.274Z,7.10
2019-01-11T15:22:45.214Z,7.10
2019-01-11T15:25:13.795Z,7.10
2019-01-11T15:27:46.714Z,7.10
2019-01-11T15:30:18.804Z,7.10
2019-01-11T15:32:47.107Z,7.00
2019-01-11T15:35:15.417Z,7.00
2019-01-11T15:37:43.705Z,7.00
2019-01-11T15:40:15.602Z,7.10
2019-01-11T15:42:44.027Z,7.00
2019-01-11T15:45:12.340Z,7.00
2019-01-11T15:47:40.862Z,7.00
2019-01-11T15:50:18.323Z,7.00
2019-01-11T15:52:48.610Z,7.00
2019-01-11T15:55:16.955Z,7.00
2019-01-11T15:57:49.507Z,7.00
2019-01-11T16:00:20.261Z,6.90
2019-01-11T16:02:51.587Z,7.00
2019-01-11T16:05:21.592Z,6.90
2019-01-11T16:07:51.550Z,6.90
2019-01-11T16:10:20.903Z,6.90
2019-01-11T16:12:49.892Z,6.90
2019-01-11T16:15:29.327Z,6.90
2019-01-11T16:18:01.031Z,6.90
2019-01-11T16:20:29.286Z,6.90
2019-01-11T16:22:57.612Z,6.90
2019-01-11T16:25:25.984Z,6.90
2019-01-11T16:27:54.590Z,6.90
2019-01-11T16:30:23.011Z,6.90
2019-01-11T16:32:51.434Z,6.90
2019-01-11T16:35:19.788Z,6.90
2019-01-11T16:37:48.040Z,6.80
2019-01-11T16:40:16.388Z,6.80
2019-01-11T16:42:44.696Z,6.80
2019-01-11T16:45:14.265Z,6.80
2019-01-11T16:47:42.568Z,6.80
2019-01-11T16:50:16.384Z,6.80
2019-01-11T16:52:46.493Z,6.80
2019-01-11T16:55:14.829Z,6.80
2019-01-11T16:57:43.316Z,6.80
2019-01-11T17:00:17.382Z,6.80
2019-01-11T17:02:45.644Z,6.90
2019-01-11T17:05:46.715Z,6.80
2019-01-11T17:07:54.242Z,6.80
2019-01-11T17:10:22.571Z,6.90
2019-01-11T17:12:59.949Z,6.80
2019-01-11T17:15:31.424Z,6.90
2019-01-11T17:18:21.986Z,6.80
2019-01-11T17:20:41.627Z,6.80
2019-01-11T17:23:11.647Z,6.90
2019-01-11T17:25:39.968Z,6.90
2019-01-11T17:28:08.785Z,6.90
2019-01-11T17:30:37.152Z,6.90
2019-01-11T17:33:11.433Z,6.80
2019-01-11T17:35:39.724Z,6.90
2019-01-11T17:38:09.652Z,6.80
2019-01-11T17:40:38.018Z,6.80
2019-01-11T17:43:06.400Z,6.80
2019-01-11T17:45:34.796Z,6.80
2019-01-11T17:48:08.116Z,6.80
2019-01-11T17:50:36.437Z,6.80
2019-01-11T17:53:04.713Z,6.80
2019-01-11T17:55:34.851Z,6.80
2019-01-11T17:58:09.369Z,6.80
2019-01-11T18:00:33.381Z,6.80
2019-01-11T18:03:01.711Z,6.80
2019-01-11T18:05:30.210Z,6.80
2019-01-11T18:07:59.495Z,6.80
2019-01-11T18:10:28.037Z,6.80
2019-01-11T18:13:00.001Z,6.70
2019-01-11T18:15:27.210Z,6.70
2019-01-11T18:17:55.466Z,6.70
2019-01-11T18:20:26.449Z,6.80
2019-01-11T18:22:57.901Z,6.80
2019-01-11T18:25:26.211Z,6.70
2019-01-11T18:27:54.761Z,6.70
2019-01-11T18:30:23.236Z,6.70
2019-01-11T18:32:51.501Z,6.70
2019-01-11T18:35:19.873Z,6.70
2019-01-11T18:37:48.162Z,6.70
2019-01-11T18:40:22.442Z,6.80
2019-01-11T18:42:50.719Z,6.80
2019-01-11T18:45:19.025Z,6.70
2019-01-11T18:47:47.336Z,6.70
2019-01-11T18:50:18.315Z,6.80
2019-01-11T18:52:51.946Z,6.70
2019-01-11T18:55:20.356Z,6.70
2019-01-11T18:57:51.376Z,6.70
2019-01-11T19:00:22.366Z,6.70
2019-01-11T19:02:50.723Z,6.70
2019-01-11T19:05:19.074Z,6.80
2019-01-11T19:08:06.199Z,6.70
2019-01-11T19:10:21.400Z,6.80
2019-01-11T19:12:49.677Z,6.80
2019-01-11T19:15:20.617Z,6.80
2019-01-11T19:17:52.234Z,6.70
2019-01-11T19:20:22.829Z,6.70
2019-01-11T19:22:51.159Z,6.70
2019-01-11T19:25:19.498Z,6.70
2019-01-11T19:27:47.925Z,6.70
2019-01-11T19:30:20.005Z,6.70
2019-01-11T19:32:48.421Z,6.70
2019-01-11T19:35:16.711Z,6.70
2019-01-11T19:37:44.992Z,6.70
2019-01-11T19:40:15.248Z,6.70
2019-01-11T19:42:43.566Z,6.70
2019-01-11T19:45:14.547Z,6.70
2019-01-11T19:47:42.954Z,6.70
2019-01-11T19:50:17.785Z,6.70
2019-01-11T19:52:46.290Z,6.70
2019-01-11T19:55:14.608Z,6.70
2019-01-11T19:57:44.062Z,6.70
2019-01-11T20:00:26.212Z,6.70
2019-01-11T20:02:54.881Z,6.60
2019-01-11T20:05:24.695Z,6.60
2019-01-11T20:07:53.060Z,6.60
2019-01-11T20:10:24.203Z,6.60
2019-01-11T20:12:52.611Z,6.60
2019-01-11T20:15:20.944Z,6.60
2019-01-11T20:17:49.404Z,6.60
2019-01-11T20:20:20.100Z,6.60
2019-01-11T20:22:47.733Z,6.60
2019-01-11T20:25:17.981Z,6.60
2019-01-11T20:27:46.416Z,6.60
2019-01-11T20:30:17.522Z,6.60
2019-01-11T20:32:45.991Z,6.60
2019-01-11T20:35:14.390Z,6.50
2019-01-11T20:37:42.666Z,6.50
2019-01-11T20:40:13.388Z,6.50
2019-01-11T20:42:41.663Z,6.50
2019-01-11T20:45:12.561Z,6.50
2019-01-11T20:47:40.848Z,6.50
2019-01-11T20:50:13.022Z,6.50
2019-01-11T20:52:46.931Z,6.40
2019-01-11T20:55:16.524Z,6.50
2019-01-11T20:57:48.298Z,6.50
2019-01-11T21:00:22.655Z,6.50
2019-01-11T21:02:50.992Z,6.50
2019-01-11T21:05:19.251Z,6.50
2019-01-11T21:07:49.271Z,6.50
2019-01-11T21:10:17.585Z,6.50
2019-01-11T21:12:45.867Z,6.50
2019-01-11T21:15:19.499Z,6.50
2019-01-11T21:17:47.897Z,6.50
2019-01-11T21:20:24.180Z,6.50
2019-01-11T21:22:49.937Z,6.50
2019-01-11T21:25:19.505Z,6.50
2019-01-11T21:27:47.923Z,6.50
2019-01-11T21:30:20.309Z,6.50
2019-01-11T21:32:49.573Z,6.50
2019-01-11T21:35:17.861Z,6.50
2019-01-11T21:37:46.396Z,6.50
2019-01-11T21:40:16.548Z,6.50
2019-01-11T21:42:45.111Z,6.50
2019-01-11T21:45:19.458Z,6.50
2019-01-11T21:47:47.991Z,6.50
2019-01-11T21:50:24.098Z,6.50
2019-01-11T21:52:52.373Z,6.50
2019-01-11T21:55:20.715Z,6.40
2019-01-11T21:57:51.059Z,6.50
2019-01-11T22:00:21.968Z,6.50
2019-01-11T22:02:50.373Z,6.50
2019-01-11T22:05:22.382Z,6.50
2019-01-11T22:07:51.708Z,6.50
2019-01-11T22:10:25.257Z,6.50
2019-01-11T22:12:53.336Z,6.50
2019-01-11T22:15:21.709Z,6.40
2019-01-11T22:17:49.944Z,6.40
2019-01-11T22:20:18.894Z,6.50
2019-01-11T22:22:47.229Z,6.40
2019-01-11T22:25:16.472Z,6.50
2019-01-11T22:27:45.443Z,6.50
2019-01-11T22:30:22.058Z,6.50
2019-01-11T22:32:50.345Z,6.50
2019-01-11T22:35:18.767Z,6.50
2019-01-11T22:37:47.211Z,6.50
2019-01-11T22:40:17.469Z,6.50
2019-01-11T22:42:45.980Z,6.50
2019-01-11T22:45:15.075Z,6.50
2019-01-11T22:47:43.342Z,6.50
2019-01-11T22:50:14.644Z,6.50
2019-01-11T22:52:43.072Z,6.50
2019-01-11T22:55:13.398Z,6.40
2019-01-11T22:57:41.660Z,6.40
2019-01-11T23:00:37.999Z,6.40
2019-01-11T23:03:12.196Z,6.40
2019-01-11T23:05:40.789Z,6.40
2019-01-11T23:08:11.261Z,6.40
2019-01-11T23:11:10.118Z,6.40
2019-01-11T23:13:40.021Z,6.40
2019-01-11T23:16:10.873Z,6.40
2019-01-11T23:18:39.135Z,6.40
2019-01-11T23:21:08.018Z,6.40
2019-01-11T23:23:36.269Z,6.40
2019-01-11T23:26:06.373Z,6.30
2019-01-11T23:28:34.668Z,6.30
2019-01-11T23:31:03.021Z,6.30
2019-01-11T23:33:31.303Z,6.30
2019-01-11T23:35:59.592Z,6.30
2019-01-11T23:38:27.849Z,6.30
2019-01-11T23:40:56.129Z,6.30
2019-01-11T23:43:24.490Z,6.30
2019-01-11T23:45:53.341Z,6.30
2019-01-11T23:48:21.699Z,6.30
2019-01-11T23:50:51.648Z,6.40
2019-01-11T23:53:20.028Z,6.30
2019-01-11T23:55:48.288Z,6.30
2019-01-11T23:58:18.203Z,6.40
